Time;durP1;ratioP1;P1;durP2;ratioP2;P2;SDS_P1;SDS_P2;PMS_P1;PMS_P2;Temp;Humidity;BMP_temperature;BMP_pressure;BME280_temperature;BME280_humidity;BME280_pressure;Samples;Min_cycle;Max_cycle;Signal;HPM_P1;HPM_P2
2022/03/06 00:01:28;;;;;;;3.70;1.60;;;20.40;99.90;;;;;;5092621;28;20032;-79
2022/03/06 00:03:56;;;;;;;7.97;2.05;;;20.50;99.90;;;;;;5093786;28;20086;-78
2022/03/06 00:06:23;;;;;;;13.25;1.92;;;20.50;99.90;;;;;;5093783;28;20487;-82
2022/03/06 00:08:51;;;;;;;5.22;1.08;;;20.50;99.90;;;;;;5093622;28;20040;-83
2022/03/06 00:11:18;;;;;;;7.47;2.00;;;20.50;99.90;;;;;;5093096;28;20049;-76
2022/03/06 00:13:45;;;;;;;6.03;1.20;;;20.50;99.90;;;;;;5093417;28;20124;-80
2022/03/06 00:16:13;;;;;;;6.97;1.85;;;20.50;99.90;;;;;;5093334;28;20460;-78
2022/03/06 00:18:40;;;;;;;9.85;2.10;;;20.50;99.90;;;;;;5092824;28;20032;-80
2022/03/06 00:21:09;;;;;;;8.05;1.40;;;20.50;99.90;;;;;;5092167;28;20069;-81
2022/03/06 00:23:36;;;;;;;7.70;1.52;;;20.60;99.90;;;;;;5092724;28;20058;-81
2022/03/06 00:26:04;;;;;;;6.97;1.55;;;20.60;99.90;;;;;;5092994;28;20016;-84
2022/03/06 00:28:31;;;;;;;7.25;2.28;;;20.60;99.90;;;;;;5073215;28;20028;-81
2022/03/06 00:30:59;;;;;;;13.15;2.35;;;20.60;99.90;;;;;;5073178;28;20031;-78
2022/03/06 00:33:26;;;;;;;7.18;1.35;;;20.70;99.90;;;;;;5080311;28;20154;-81
2022/03/06 00:35:53;;;;;;;20.10;2.20;;;20.70;99.90;;;;;;5091402;28;20048;-82
2022/03/06 00:38:21;;;;;;;10.18;1.90;;;20.70;99.90;;;;;;5091423;28;20540;-84
2022/03/06 00:40:48;;;;;;;7.55;1.52;;;20.70;99.90;;;;;;5092786;28;20032;-82
2022/03/06 00:43:17;;;;;;;15.77;2.50;;;20.70;99.90;;;;;;5089918;28;20539;-81
2022/03/06 00:45:44;;;;;;;10.82;2.22;;;20.80;99.90;;;;;;5091024;28;20032;-83
2022/03/06 00:48:12;;;;;;;15.68;2.53;;;20.80;99.90;;;;;;5090932;28;20408;-84
2022/03/06 00:50:40;;;;;;;11.27;1.63;;;20.80;99.90;;;;;;5091624;28;20099;-82
2022/03/06 00:53:08;;;;;;;9.77;2.03;;;20.80;99.90;;;;;;5092936;28;20020;-84
2022/03/06 00:55:36;;;;;;;10.82;1.42;;;20.90;99.90;;;;;;5092765;28;20031;-81
2022/03/06 00:58:06;;;;;;;11.43;2.28;;;20.90;99.90;;;;;;5092880;28;20020;-86
2022/03/06 01:00:36;;;;;;;10.40;1.77;;;21.00;99.90;;;;;;5095685;28;20020;-82
2022/03/06 01:03:11;;;;;;;7.57;1.73;;;21.00;99.90;;;;;;5097190;28;20016;-85
2022/03/06 01:05:39;;;;;;;13.30;2.58;;;21.00;99.90;;;;;;5096926;28;20055;-87
2022/03/06 01:08:06;;;;;;;9.07;1.92;;;21.00;99.90;;;;;;5096511;28;20401;-87
2022/03/06 01:10:37;;;;;;;10.75;2.55;;;21.00;99.90;;;;;;5096426;28;20422;-87
2022/03/06 01:13:05;;;;;;;12.27;2.20;;;21.10;99.90;;;;;;5096611;28;20019;-83
2022/03/06 01:15:33;;;;;;;11.90;2.05;;;21.00;99.90;;;;;;5096567;28;20028;-84
2022/03/06 01:18:00;;;;;;;17.75;3.10;;;21.00;99.90;;;;;;5095210;28;20074;-84
2022/03/06 01:20:28;;;;;;;15.48;2.30;;;21.00;99.90;;;;;;5096813;28;20521;-84
2022/03/06 01:22:56;;;;;;;12.65;2.45;;;21.00;99.90;;;;;;5096900;28;20032;-84
2022/03/06 01:25:23;;;;;;;17.02;2.60;;;21.00;99.90;;;;;;5096350;28;20095;-84
2022/03/06 01:27:51;;;;;;;12.00;2.33;;;21.00;99.90;;;;;;5096626;28;20032;-83
2022/03/06 01:30:22;;;;;;;6.70;1.77;;;21.00;99.90;;;;;;5096624;28;20023;-84
2022/03/06 01:32:50;;;;;;;10.02;2.20;;;21.10;99.90;;;;;;5095153;28;20035;-84
2022/03/06 01:35:18;;;;;;;11.00;2.20;;;21.10;99.90;;;;;;5093212;28;20424;-81
2022/03/06 01:37:45;;;;;;;6.13;1.75;;;21.10;99.90;;;;;;5092418;28;20515;-83
2022/03/06 01:40:15;;;;;;;10.15;1.73;;;21.10;99.90;;;;;;5092822;28;20020;-83
2022/03/06 01:42:44;;;;;;;8.07;1.83;;;21.10;99.90;;;;;;5092935;28;20384;-83
2022/03/06 01:45:12;;;;;;;5.50;1.25;;;21.20;99.90;;;;;;5092712;28;20032;-84
2022/03/06 01:47:42;;;;;;;11.55;2.00;;;21.10;99.90;;;;;;5093806;28;20047;-85
2022/03/06 01:50:11;;;;;;;7.15;1.55;;;21.20;99.90;;;;;;5094287;28;20447;-84
2022/03/06 01:52:39;;;;;;;8.27;1.60;;;21.20;99.90;;;;;;5096231;28;20024;-81
2022/03/06 01:55:06;;;;;;;4.68;1.63;;;21.20;99.90;;;;;;5096155;28;20468;-85
2022/03/06 01:57:34;;;;;;;6.03;1.58;;;21.10;99.90;;;;;;5096124;28;20031;-84
2022/03/06 02:00:04;;;;;;;5.97;1.08;;;21.20;99.90;;;;;;5096096;28;20016;-85
2022/03/06 02:02:32;;;;;;;5.45;1.70;;;21.20;99.90;;;;;;5094657;28;20024;-85
2022/03/06 02:05:00;;;;;;;6.00;1.35;;;21.20;99.90;;;;;;5096155;28;20020;-85
2022/03/06 02:07:28;;;;;;;3.78;1.42;;;21.20;99.90;;;;;;5095667;28;20392;-85
2022/03/06 02:09:56;;;;;;;8.35;1.30;;;21.30;99.90;;;;;;5095833;28;20020;-85
2022/03/06 02:12:24;;;;;;;2.78;1.15;;;21.30;99.90;;;;;;5095982;28;20027;-86
2022/03/06 02:14:54;;;;;;;7.97;1.80;;;21.40;99.90;;;;;;5095772;28;20020;-85
2022/03/06 02:17:22;;;;;;;5.30;1.80;;;21.40;99.90;;;;;;5094097;28;20055;-86
2022/03/06 02:19:53;;;;;;;4.05;1.10;;;21.50;99.90;;;;;;5095734;28;20020;-86
2022/03/06 02:22:22;;;;;;;4.45;1.33;;;21.50;99.90;;;;;;5094415;28;20503;-86
2022/03/06 02:24:49;;;;;;;5.47;1.17;;;21.60;99.90;;;;;;5095560;28;20495;-85
2022/03/06 02:27:17;;;;;;;5.45;1.45;;;21.60;99.90;;;;;;5095244;28;20016;-85
2022/03/06 02:29:45;;;;;;;7.03;2.25;;;21.70;99.90;;;;;;5095671;28;20035;-86
2022/03/06 02:32:16;;;;;;;8.35;2.30;;;21.80;99.90;;;;;;5095795;28;20365;-87
2022/03/06 02:34:46;;;;;;;5.20;1.30;;;21.80;99.90;;;;;;5095593;28;20028;-86
2022/03/06 02:37:15;;;;;;;5.43;1.63;;;21.90;99.90;;;;;;5095090;28;20024;-87
2022/03/06 02:39:45;;;;;;;7.68;1.58;;;22.00;99.90;;;;;;5095220;28;20030;-86
2022/03/06 02:42:34;;;;;;;5.47;1.52;;;22.10;99.90;;;;;;5095423;28;20024;-86
2022/03/06 02:45:06;;;;;;;4.20;1.40;;;22.20;99.90;;;;;;5095507;28;20023;-87
2022/03/06 02:47:34;;;;;;;5.05;1.48;;;22.30;99.90;;;;;;5093676;28;20035;-86
2022/03/06 02:50:02;;;;;;;6.30;1.95;;;22.30;99.90;;;;;;5095000;28;20067;-83
2022/03/06 02:52:30;;;;;;;4.55;1.17;;;22.30;99.90;;;;;;5095317;28;20024;-87
2022/03/06 02:54:57;;;;;;;4.82;1.52;;;22.20;99.90;;;;;;5095265;28;20020;-86
2022/03/06 02:57:24;;;;;;;6.68;1.33;;;22.20;99.90;;;;;;5094675;28;20024;-85
2022/03/06 02:59:52;;;;;;;7.30;1.30;;;22.30;99.90;;;;;;5095158;28;20016;-84
2022/03/06 03:02:20;;;;;;;10.25;2.03;;;22.30;99.90;;;;;;5094942;28;20024;-86
2022/03/06 03:04:48;;;;;;;8.38;1.40;;;22.30;99.90;;;;;;5094841;28;20073;-86
2022/03/06 03:07:15;;;;;;;4.30;0.98;;;22.20;99.90;;;;;;5088692;28;20023;-84
2022/03/06 03:09:43;;;;;;;7.93;1.52;;;22.20;99.90;;;;;;5092478;28;20102;-85
2022/03/06 03:12:11;;;;;;;6.88;1.58;;;22.20;99.90;;;;;;5095008;28;20012;-86
2022/03/06 03:14:38;;;;;;;7.53;1.15;;;22.10;99.90;;;;;;5094643;28;20028;-87
2022/03/06 03:17:06;;;;;;;5.13;1.65;;;22.10;99.90;;;;;;5094557;28;20027;-88
2022/03/06 03:19:34;;;;;;;7.25;1.77;;;22.10;99.90;;;;;;5094769;28;20023;-86
2022/03/06 03:22:01;;;;;;;4.75;1.25;;;22.10;99.90;;;;;;5094084;28;20020;-84
2022/03/06 03:24:29;;;;;;;3.65;1.27;;;22.10;99.90;;;;;;5094497;28;20381;-84
2022/03/06 03:26:56;;;;;;;10.07;2.55;;;22.00;99.90;;;;;;5094095;28;20084;-87
2022/03/06 03:29:23;;;;;;;9.48;2.00;;;21.90;99.90;;;;;;5092748;28;20020;-87
2022/03/06 03:31:51;;;;;;;6.63;1.50;;;21.90;99.90;;;;;;5094546;28;20024;-87
2022/03/06 03:34:18;;;;;;;6.35;0.80;;;21.90;99.90;;;;;;5093030;28;20035;-88
2022/03/06 03:36:45;;;;;;;8.07;2.25;;;21.80;99.90;;;;;;5094156;28;20622;-86
2022/03/06 03:39:13;;;;;;;7.70;2.13;;;21.80;99.90;;;;;;5094294;28;20028;-86
2022/03/06 03:41:40;;;;;;;6.90;1.75;;;21.80;99.90;;;;;;5094382;28;20199;-87
2022/03/06 03:44:08;;;;;;;8.82;1.88;;;21.80;99.90;;;;;;5094365;28;20542;-86
2022/03/06 03:46:35;;;;;;;9.00;1.73;;;21.70;99.90;;;;;;5093937;28;20024;-87
2022/03/06 03:49:02;;;;;;;5.90;1.98;;;21.70;99.90;;;;;;5092360;28;20052;-86
2022/03/06 03:51:30;;;;;;;11.75;2.03;;;21.70;99.90;;;;;;5094364;28;20020;-87
2022/03/06 03:53:58;;;;;;;5.55;2.28;;;21.70;99.90;;;;;;5094125;28;20504;-87
2022/03/06 03:56:25;;;;;;;8.90;2.05;;;21.70;99.90;;;;;;5094089;28;20434;-86
2022/03/06 03:58:52;;;;;;;4.97;1.65;;;21.70;99.90;;;;;;5092256;28;20035;-79
2022/03/06 04:01:19;;;;;;;7.57;1.52;;;21.70;99.90;;;;;;5092502;28;20183;-83
2022/03/06 04:03:47;;;;;;;5.75;1.40;;;21.70;99.90;;;;;;5094180;28;20073;-85
2022/03/06 04:06:15;;;;;;;3.42;1.23;;;21.70;99.90;;;;;;5093930;28;20461;-84
2022/03/06 04:08:42;;;;;;;3.38;0.98;;;21.70;99.90;;;;;;5093543;28;20028;-79
2022/03/06 04:11:10;;;;;;;6.93;1.35;;;21.60;99.90;;;;;;5093972;28;20024;-87
2022/03/06 04:13:37;;;;;;;4.97;1.00;;;21.60;99.90;;;;;;5093662;28;20047;-87
2022/03/06 04:16:05;;;;;;;5.55;1.20;;;21.60;99.90;;;;;;5093922;28;20073;-90
2022/03/06 04:18:32;;;;;;;6.45;1.17;;;21.60;99.90;;;;;;5091648;28;20032;-77
2022/03/06 04:20:59;;;;;;;11.07;1.48;;;21.60;99.90;;;;;;5090209;28;20040;-87
2022/03/06 04:23:27;;;;;;;6.35;1.67;;;21.60;99.90;;;;;;5092833;28;20024;-84
2022/03/06 04:25:54;;;;;;;6.20;1.45;;;21.70;99.90;;;;;;5092741;28;20032;-87
2022/03/06 04:28:21;;;;;;;3.65;1.33;;;21.60;99.90;;;;;;5092615;28;20031;-87
2022/03/06 04:30:49;;;;;;;5.30;1.40;;;21.60;99.90;;;;;;5091036;28;20713;-84
2022/03/06 04:33:16;;;;;;;3.33;1.10;;;21.70;99.90;;;;;;5091968;28;20028;-82
2022/03/06 04:35:43;;;;;;;10.90;2.45;;;21.60;99.90;;;;;;5091439;28;20044;-80
2022/03/06 04:38:10;;;;;;;9.73;1.55;;;21.60;99.90;;;;;;5092310;28;20024;-80
2022/03/06 04:40:38;;;;;;;5.55;1.40;;;21.50;99.90;;;;;;5092452;28;20027;-83
2022/03/06 04:43:05;;;;;;;4.18;1.02;;;21.40;99.90;;;;;;5092531;28;20023;-85
2022/03/06 04:45:32;;;;;;;5.05;1.80;;;21.40;99.90;;;;;;5091897;28;20031;-81
2022/03/06 04:48:00;;;;;;;2.90;0.70;;;21.30;99.90;;;;;;5089855;28;20032;-83
2022/03/06 04:50:28;;;;;;;3.88;0.93;;;21.20;99.90;;;;;;5092224;28;20037;-82
2022/03/06 04:52:56;;;;;;;2.25;0.70;;;21.10;99.90;;;;;;5092287;28;20027;-87
2022/03/06 04:55:23;;;;;;;6.00;1.10;;;21.10;99.90;;;;;;5092406;28;20016;-84
2022/03/06 04:57:50;;;;;;;1.92;0.80;;;21.00;99.90;;;;;;5090833;28;20415;-83
2022/03/06 05:00:18;;;;;;;1.92;0.95;;;21.00;99.90;;;;;;5091041;28;20016;-84
2022/03/06 05:02:45;;;;;;;1.58;0.60;;;20.90;99.90;;;;;;5092550;28;20091;-86
2022/03/06 05:05:12;;;;;;;2.22;0.60;;;20.90;99.90;;;;;;5088100;28;20020;-86
2022/03/06 05:07:40;;;;;;;2.22;0.70;;;20.80;99.90;;;;;;5089681;28;20059;-84
2022/03/06 05:10:09;;;;;;;2.83;0.80;;;20.80;99.90;;;;;;5091938;28;20073;-84
2022/03/06 05:12:38;;;;;;;3.10;0.73;;;20.80;99.90;;;;;;5092462;28;20024;-84
2022/03/06 05:15:08;;;;;;;1.85;0.60;;;20.80;99.90;;;;;;5092531;28;20020;-83
2022/03/06 05:17:35;;;;;;;2.20;0.68;;;20.70;99.90;;;;;;5092366;28;20040;-84
2022/03/06 05:20:04;;;;;;;4.55;0.95;;;20.80;99.90;;;;;;5092086;28;20052;-84
2022/03/06 05:22:31;;;;;;;4.10;1.02;;;20.80;99.90;;;;;;5092351;28;20043;-84
2022/03/06 05:24:58;;;;;;;5.18;0.88;;;20.80;99.90;;;;;;5092235;28;20047;-83
2022/03/06 05:27:27;;;;;;;2.88;1.02;;;20.70;99.90;;;;;;5084835;28;20072;-85
2022/03/06 05:29:55;;;;;;;3.25;1.23;;;20.70;99.90;;;;;;5088477;28;20034;-83
2022/03/06 05:32:22;;;;;;;5.72;1.05;;;20.60;99.90;;;;;;5090867;28;20035;-83
2022/03/06 05:34:50;;;;;;;4.22;1.15;;;20.70;99.90;;;;;;5090921;28;20058;-81
2022/03/06 05:37:17;;;;;;;4.22;1.88;;;20.70;99.90;;;;;;5090781;28;20028;-81
2022/03/06 05:39:45;;;;;;;5.20;1.35;;;20.70;99.90;;;;;;5090917;28;20073;-83
2022/03/06 05:42:14;;;;;;;5.15;1.30;;;20.60;99.90;;;;;;5091009;28;20426;-84
2022/03/06 05:44:42;;;;;;;5.13;1.20;;;20.70;99.90;;;;;;5088264;28;20415;-82
2022/03/06 05:47:12;;;;;;;4.40;1.50;;;20.70;99.90;;;;;;5093981;28;20032;-82
2022/03/06 05:49:39;;;;;;;6.43;1.55;;;20.70;99.90;;;;;;5091088;28;20059;-81
2022/03/06 05:52:07;;;;;;;3.45;1.23;;;20.70;99.90;;;;;;5094654;28;20028;-83
2022/03/06 05:54:34;;;;;;;4.25;1.10;;;20.70;99.90;;;;;;5094266;28;20035;-81
2022/03/06 05:57:01;;;;;;;2.95;1.40;;;20.70;99.90;;;;;;5094059;28;20110;-83
2022/03/06 05:59:29;;;;;;;7.20;1.70;;;20.70;99.90;;;;;;5093063;28;20437;-83
2022/03/06 06:01:57;;;;;;;2.85;1.42;;;20.80;99.90;;;;;;5093997;28;20017;-79
2022/03/06 06:04:24;;;;;;;4.47;1.98;;;20.80;99.90;;;;;;5093607;28;20035;-83
2022/03/06 06:06:52;;;;;;;8.35;1.60;;;20.80;99.90;;;;;;5093699;28;20009;-82
2022/03/06 06:09:19;;;;;;;4.32;1.73;;;20.80;99.90;;;;;;5093411;28;20024;-81
2022/03/06 06:11:46;;;;;;;3.55;1.73;;;20.80;99.90;;;;;;5093553;28;20016;-81
2022/03/06 06:14:14;;;;;;;6.32;1.90;;;20.80;99.90;;;;;;5093407;28;20032;-81
2022/03/06 06:16:41;;;;;;;1.27;1.10;;;20.80;99.90;;;;;;5091074;28;20028;-79
2022/03/06 06:19:13;;;;;;;4.80;1.75;;;20.90;99.90;;;;;;5092280;28;20350;-87
2022/03/06 06:21:43;;;;;;;3.50;1.65;;;20.90;99.90;;;;;;5092645;28;20043;-87
2022/03/06 06:24:13;;;;;;;4.80;1.50;;;20.90;99.90;;;;;;5092866;28;20024;-85
2022/03/06 06:26:42;;;;;;;3.88;1.38;;;20.90;99.90;;;;;;5069114;28;20103;-84
2022/03/06 06:29:12;;;;;;;8.00;1.63;;;21.00;99.90;;;;;;5075895;28;20468;-83
2022/03/06 06:31:40;;;;;;;7.60;1.67;;;21.00;99.90;;;;;;5073504;28;20154;-85
2022/03/06 06:34:08;;;;;;;5.57;1.98;;;21.10;99.90;;;;;;5077205;28;20021;-84
2022/03/06 06:36:41;;;;;;;3.97;1.63;;;21.10;99.90;;;;;;5076599;28;20029;-83
2022/03/06 06:39:11;;;;;;;5.55;1.92;;;21.10;99.90;;;;;;5076023;28;20048;-82
2022/03/06 06:41:40;;;;;;;7.55;1.70;;;21.10;99.90;;;;;;5072810;28;20009;-85
2022/03/06 06:44:08;;;;;;;2.92;1.40;;;21.10;99.90;;;;;;5072213;28;20414;-83
2022/03/06 06:46:39;;;;;;;9.13;1.48;;;21.10;99.90;;;;;;5078270;28;20435;-86
2022/03/06 06:49:06;;;;;;;8.52;2.13;;;21.10;99.90;;;;;;5075940;28;20059;-85
2022/03/06 06:51:34;;;;;;;6.93;1.92;;;21.20;99.90;;;;;;5076594;28;20024;-83
2022/03/06 06:54:01;;;;;;;6.05;1.42;;;21.20;99.90;;;;;;5074959;28;20101;-87
2022/03/06 06:56:29;;;;;;;6.05;1.65;;;21.20;99.90;;;;;;5079141;28;20028;-85
2022/03/06 06:58:56;;;;;;;2.80;1.50;;;21.20;99.90;;;;;;5076423;28;20488;-85
2022/03/06 07:01:24;;;;;;;4.85;1.85;;;21.30;99.90;;;;;;5079079;28;20031;-87
2022/03/06 07:03:52;;;;;;;4.45;1.30;;;21.30;99.90;;;;;;5078292;28;20027;-87
2022/03/06 07:06:19;;;;;;;3.83;1.35;;;21.40;99.90;;;;;;5078125;28;20020;-85
2022/03/06 07:08:46;;;;;;;4.70;1.45;;;21.40;99.90;;;;;;5077408;28;20517;-83
2022/03/06 07:11:14;;;;;;;3.80;1.48;;;21.40;99.90;;;;;;5076794;28;20028;-88
2022/03/06 07:13:41;;;;;;;2.95;1.10;;;21.40;99.90;;;;;;5078438;28;20048;-86
2022/03/06 07:16:11;;;;;;;6.85;1.75;;;21.40;99.90;;;;;;5077543;28;20017;-87
2022/03/06 07:18:38;;;;;;;6.15;1.13;;;21.40;99.90;;;;;;5078284;28;20025;-83
2022/03/06 07:21:06;;;;;;;3.97;1.35;;;21.30;99.90;;;;;;5073271;28;20028;-84
2022/03/06 07:23:33;;;;;;;3.20;1.10;;;21.40;99.90;;;;;;5080119;28;20031;-86
2022/03/06 07:26:00;;;;;;;9.48;1.90;;;21.30;99.90;;;;;;5077993;28;20480;-87
2022/03/06 07:28:29;;;;;;;3.55;1.23;;;21.40;99.90;;;;;;5084338;28;20035;-87
2022/03/06 07:30:56;;;;;;;3.47;1.23;;;21.40;99.90;;;;;;5085396;28;20020;-83
2022/03/06 07:33:24;;;;;;;5.40;1.60;;;21.40;99.90;;;;;;5080248;28;20358;-86
2022/03/06 07:35:51;;;;;;;4.53;1.83;;;21.30;99.90;;;;;;5085046;28;20032;-84
2022/03/06 07:38:18;;;;;;;4.32;1.15;;;21.30;99.90;;;;;;5073433;28;20032;-87
2022/03/06 07:40:46;;;;;;;4.90;1.05;;;21.40;99.90;;;;;;5083039;28;20020;-86
2022/03/06 07:43:13;;;;;;;4.57;1.20;;;21.40;99.90;;;;;;5085960;28;20028;-83
2022/03/06 07:45:41;;;;;;;6.85;1.35;;;21.40;99.90;;;;;;5090088;28;20056;-85
2022/03/06 07:48:08;;;;;;;8.20;1.80;;;21.40;99.90;;;;;;5090845;28;20031;-86
2022/03/06 07:50:35;;;;;;;5.05;1.27;;;21.40;99.90;;;;;;5088307;28;20024;-86
2022/03/06 07:53:03;;;;;;;5.13;1.48;;;21.40;99.90;;;;;;5091193;28;20099;-86
2022/03/06 07:55:30;;;;;;;4.80;1.40;;;21.40;99.90;;;;;;5089777;28;20024;-86
2022/03/06 07:57:57;;;;;;;5.28;1.40;;;21.40;99.90;;;;;;5090693;28;20024;-85
2022/03/06 08:00:25;;;;;;;3.78;1.30;;;21.40;99.90;;;;;;5085246;28;20025;-86
2022/03/06 08:02:55;;;;;;;5.88;1.60;;;21.40;99.90;;;;;;5089004;28;20508;-86
2022/03/06 08:05:23;;;;;;;6.00;1.50;;;21.40;99.90;;;;;;5091976;28;20102;-86
2022/03/06 08:07:50;;;;;;;4.18;0.90;;;21.40;99.90;;;;;;5091511;28;20567;-86
2022/03/06 08:10:18;;;;;;;3.50;1.27;;;21.40;99.90;;;;;;5091576;28;20469;-81
2022/03/06 08:12:48;;;;;;;3.92;1.30;;;21.40;99.90;;;;;;5090262;28;20095;-84
2022/03/06 08:15:16;;;;;;;3.33;1.10;;;21.30;99.90;;;;;;5091670;28;20366;-80
2022/03/06 08:17:43;;;;;;;5.22;1.20;;;21.30;99.90;;;;;;5089981;28;20023;-86
2022/03/06 08:20:12;;;;;;;5.63;1.27;;;21.30;99.90;;;;;;5091612;28;20377;-84
2022/03/06 08:22:39;;;;;;;5.13;1.75;;;21.30;99.90;;;;;;5089829;28;20020;-87
2022/03/06 08:25:07;;;;;;;5.32;1.83;;;21.30;99.90;;;;;;5072725;28;20455;-78
2022/03/06 08:27:35;;;;;;;15.43;1.95;;;21.30;99.90;;;;;;5072353;28;20033;-78
2022/03/06 08:30:04;;;;;;;7.45;1.95;;;21.30;99.90;;;;;;5075765;28;20020;-83
2022/03/06 08:32:31;;;;;;;11.45;1.88;;;21.30;99.90;;;;;;5078761;28;20107;-86
2022/03/06 08:34:59;;;;;;;3.70;1.40;;;21.30;99.90;;;;;;5089767;28;20024;-86
2022/03/06 08:37:26;;;;;;;6.28;2.03;;;21.30;99.90;;;;;;5089526;28;20039;-84
2022/03/06 08:39:54;;;;;;;5.95;1.52;;;21.30;99.90;;;;;;5091573;28;20022;-83
2022/03/06 08:42:21;;;;;;;13.70;1.65;;;21.20;99.90;;;;;;5091304;28;20016;-83
2022/03/06 08:44:48;;;;;;;6.97;1.20;;;21.20;99.90;;;;;;5090200;28;20396;-84
2022/03/06 08:47:16;;;;;;;8.63;1.70;;;21.30;99.90;;;;;;5091017;28;20023;-84
2022/03/06 08:49:43;;;;;;;9.10;2.20;;;21.30;99.90;;;;;;5091471;28;20051;-84
2022/03/06 08:52:10;;;;;;;6.05;1.23;;;21.30;99.90;;;;;;5090692;28;20528;-85
2022/03/06 08:54:38;;;;;;;7.00;2.45;;;21.30;99.90;;;;;;5091927;28;20012;-82
2022/03/06 08:57:05;;;;;;;7.15;1.38;;;21.30;99.90;;;;;;5089555;28;20020;-83
2022/03/06 08:59:33;;;;;;;9.98;2.20;;;21.30;99.90;;;;;;5092233;28;20024;-84
2022/03/06 09:02:00;;;;;;;8.63;2.38;;;21.30;99.90;;;;;;5091916;28;20091;-86
2022/03/06 09:04:28;;;;;;;7.10;1.65;;;21.30;99.90;;;;;;5092256;28;20031;-87
2022/03/06 09:06:55;;;;;;;6.90;1.92;;;21.30;99.90;;;;;;5092128;28;20027;-86
2022/03/06 09:09:22;;;;;;;6.22;1.67;;;21.30;99.90;;;;;;5089672;28;20081;-85
2022/03/06 09:11:50;;;;;;;10.38;1.83;;;21.40;99.90;;;;;;5092239;28;20467;-87
2022/03/06 09:14:17;;;;;;;7.47;2.25;;;21.30;99.90;;;;;;5091708;28;20024;-86
2022/03/06 09:16:44;;;;;;;8.88;1.75;;;21.30;99.90;;;;;;5092143;28;20082;-87
2022/03/06 09:19:12;;;;;;;5.53;1.48;;;21.40;99.90;;;;;;5091861;28;20476;-86
2022/03/06 09:21:39;;;;;;;8.38;2.05;;;21.40;99.90;;;;;;5094831;28;20103;-86
2022/03/06 09:24:08;;;;;;;5.78;1.65;;;21.50;99.90;;;;;;5095740;28;20016;-84
2022/03/06 09:26:36;;;;;;;5.25;1.70;;;21.50;99.90;;;;;;5094052;28;20103;-84
2022/03/06 09:29:05;;;;;;;4.78;1.60;;;21.50;99.90;;;;;;5093474;28;20115;-84
2022/03/06 09:31:32;;;;;;;6.72;1.70;;;21.50;99.90;;;;;;5095490;28;20020;-86
2022/03/06 09:34:00;;;;;;;5.18;1.55;;;21.60;99.90;;;;;;5095328;28;20091;-87
2022/03/06 09:36:27;;;;;;;9.20;2.13;;;21.60;99.90;;;;;;5095838;28;20422;-83
2022/03/06 09:38:54;;;;;;;10.68;2.35;;;21.60;99.90;;;;;;5095096;28;20020;-82
2022/03/06 09:41:27;;;;;;;8.07;1.85;;;21.60;99.90;;;;;;5093897;28;20526;-86
2022/03/06 09:43:56;;;;;;;9.55;1.80;;;21.60;99.90;;;;;;5095493;28;20016;-84
2022/03/06 09:46:24;;;;;;;10.30;1.90;;;21.60;99.90;;;;;;5092991;28;20059;-86
2022/03/06 09:48:52;;;;;;;11.75;2.90;;;21.70;99.90;;;;;;5090047;28;20511;-86
2022/03/06 09:51:20;;;;;;;8.70;2.15;;;21.70;99.90;;;;;;5100376;28;20016;-87
2022/03/06 09:53:48;;;;;;;6.90;1.83;;;21.70;99.90;;;;;;5091068;28;20066;-86
2022/03/06 09:56:15;;;;;;;9.32;2.25;;;21.60;99.90;;;;;;5090775;28;20024;-86
2022/03/06 09:58:43;;;;;;;10.93;1.58;;;21.70;99.90;;;;;;5088505;28;20024;-84
2022/03/06 10:01:10;;;;;;;6.28;2.13;;;21.60;99.90;;;;;;5084932;28;20012;-86
2022/03/06 10:03:37;;;;;;;6.30;1.55;;;21.60;99.90;;;;;;5084431;28;20067;-85
2022/03/06 10:06:11;;;;;;;8.73;2.08;;;21.60;99.90;;;;;;5093184;28;20382;-84
2022/03/06 10:08:38;;;;;;;8.02;2.08;;;21.60;99.90;;;;;;5093599;28;20032;-85
2022/03/06 10:11:09;;;;;;;7.00;1.88;;;21.60;99.90;;;;;;5092915;28;20112;-80
2022/03/06 10:13:42;;;;;;;4.55;1.38;;;21.60;99.90;;;;;;5088627;28;20016;-85
2022/03/06 10:16:17;;;;;;;7.90;1.70;;;21.60;99.90;;;;;;5087586;28;20145;-86
2022/03/06 10:18:50;;;;;;;5.97;0.93;;;21.60;99.90;;;;;;5091134;28;20027;-86
2022/03/06 10:21:29;;;;;;;7.53;1.70;;;21.60;99.90;;;;;;5093319;28;20013;-86
2022/03/06 10:23:59;;;;;;;8.77;1.58;;;21.60;99.90;;;;;;5091703;28;20028;-81
2022/03/06 10:26:29;;;;;;;7.47;2.00;;;21.60;99.90;;;;;;5093689;28;20388;-85
2022/03/06 10:28:58;;;;;;;7.97;1.42;;;21.60;99.90;;;;;;5093651;28;20028;-86
2022/03/06 10:31:27;;;;;;;6.75;1.30;;;21.60;99.90;;;;;;5090279;28;20078;-86
2022/03/06 10:33:56;;;;;;;15.27;2.15;;;21.60;99.90;;;;;;5092584;28;20032;-86
2022/03/06 10:36:41;;;;;;;6.40;1.38;;;21.60;99.90;;;;;;5093486;28;20028;-86
2022/03/06 10:39:22;;;;;;;16.27;1.90;;;21.60;99.90;;;;;;5091753;28;20024;-84
2022/03/06 10:41:52;;;;;;;9.80;1.77;;;21.60;99.90;;;;;;5092038;28;20020;-87
2022/03/06 10:44:21;;;;;;;10.25;1.35;;;21.60;99.90;;;;;;5090790;28;20099;-86
2022/03/06 10:47:05;;;;;;;7.90;1.33;;;21.70;99.90;;;;;;5092554;28;20090;-83
2022/03/06 10:49:33;;;;;;;8.02;1.25;;;21.60;99.90;;;;;;5091672;28;20056;-80
2022/03/06 10:52:19;;;;;;;3.42;1.10;;;21.70;99.90;;;;;;5092372;28;20529;-84
2022/03/06 10:54:56;;;;;;;6.47;1.42;;;21.60;99.90;;;;;;5088359;28;20051;-85
2022/03/06 10:57:24;;;;;;;8.55;1.85;;;21.70;99.90;;;;;;5084840;28;20028;-85
2022/03/06 10:59:52;;;;;;;3.78;1.27;;;21.70;99.90;;;;;;5082867;28;20047;-84
2022/03/06 11:02:21;;;;;;;5.25;1.45;;;21.70;99.90;;;;;;5083180;28;20354;-85
2022/03/06 11:04:53;;;;;;;7.13;1.92;;;21.70;99.90;;;;;;5083139;28;20088;-85
2022/03/06 11:07:21;;;;;;;7.65;1.20;;;21.70;99.90;;;;;;5083426;28;20024;-86
2022/03/06 11:09:49;;;;;;;7.40;1.85;;;21.70;99.90;;;;;;5089037;28;20035;-86
2022/03/06 11:12:17;;;;;;;6.20;1.42;;;21.70;99.90;;;;;;5092973;28;20354;-85
2022/03/06 11:14:45;;;;;;;5.03;1.60;;;21.70;99.90;;;;;;5091539;28;20020;-85
2022/03/06 11:17:13;;;;;;;4.32;1.60;;;21.70;99.90;;;;;;5089196;28;20020;-86
2022/03/06 11:19:40;;;;;;;4.55;1.45;;;21.70;99.90;;;;;;5092433;28;20435;-84
2022/03/06 11:22:55;;;;;;;7.03;1.45;;;21.70;99.90;;;;;;5092234;28;20091;-84
2022/03/06 11:25:27;;;;;;;4.85;1.20;;;21.70;99.90;;;;;;5088965;28;20492;-82
2022/03/06 11:28:32;;;;;;;6.32;1.35;;;21.70;99.90;;;;;;5088416;28;20056;-85
2022/03/06 11:31:00;;;;;;;7.88;1.75;;;21.70;99.90;;;;;;5068227;28;20081;-80
2022/03/06 11:33:27;;;;;;;11.35;1.63;;;21.60;99.90;;;;;;5089722;28;20024;-86
2022/03/06 11:35:56;;;;;;;3.05;1.10;;;21.60;99.90;;;;;;5091739;28;20016;-86
2022/03/06 11:38:39;;;;;;;8.23;1.40;;;21.60;99.90;;;;;;5091162;28;20099;-85
2022/03/06 11:41:12;;;;;;;9.65;2.88;;;21.70;99.90;;;;;;5091562;28;20023;-81
2022/03/06 11:43:44;;;;;;;10.50;2.17;;;21.60;99.90;;;;;;5091926;28;20039;-81
2022/03/06 11:46:26;;;;;;;6.35;2.25;;;21.60;99.90;;;;;;5091588;28;20012;-80
2022/03/06 11:48:53;;;;;;;6.53;1.75;;;21.70;99.90;;;;;;5089667;28;20137;-82
2022/03/06 11:51:30;;;;;;;3.85;1.35;;;21.70;99.90;;;;;;5092304;28;20020;-84
2022/03/06 11:54:17;;;;;;;2.38;0.82;;;21.70;99.90;;;;;;5091454;28;20111;-84
2022/03/06 11:56:46;;;;;;;4.93;0.90;;;21.70;99.90;;;;;;5091457;28;20385;-85
2022/03/06 11:59:26;;;;;;;5.85;1.60;;;21.70;99.90;;;;;;5092054;28;20022;-85
2022/03/06 12:01:55;;;;;;;5.18;0.90;;;21.70;99.90;;;;;;5089092;28;20016;-85
2022/03/06 12:04:27;;;;;;;6.68;1.45;;;21.70;99.90;;;;;;5091996;28;20024;-85
2022/03/06 12:07:04;;;;;;;6.47;1.45;;;21.70;99.90;;;;;;5091848;28;20030;-84
2022/03/06 12:09:38;;;;;;;11.65;2.15;;;21.70;99.90;;;;;;5090169;28;20058;-85
2022/03/06 12:12:08;;;;;;;5.78;1.95;;;21.80;99.90;;;;;;5092049;28;20134;-85
2022/03/06 12:14:39;;;;;;;8.00;1.65;;;21.70;99.90;;;;;;5091448;28;20069;-86
2022/03/06 12:17:10;;;;;;;5.88;1.52;;;21.80;99.90;;;;;;5089244;28;20032;-84
2022/03/06 12:19:44;;;;;;;13.75;1.58;;;21.70;99.90;;;;;;5091869;28;20024;-86
2022/03/06 12:22:15;;;;;;;6.97;2.67;;;21.70;99.90;;;;;;5075738;28;20024;-85
2022/03/06 12:24:45;;;;;;;5.30;1.70;;;21.70;99.90;;;;;;5076211;28;20032;-84
2022/03/06 12:27:17;;;;;;;8.98;1.40;;;21.80;99.90;;;;;;5071149;28;20035;-84
2022/03/06 12:29:48;;;;;;;6.85;2.33;;;21.80;99.90;;;;;;5071662;28;20027;-84
2022/03/06 12:32:27;;;;;;;7.03;1.55;;;21.70;99.90;;;;;;5071796;28;20023;-85
2022/03/06 12:35:02;;;;;;;8.35;1.90;;;21.70;99.90;;;;;;5071694;28;20024;-85
2022/03/06 12:37:38;;;;;;;6.23;1.60;;;21.70;99.90;;;;;;5071836;28;20021;-87
2022/03/06 12:40:09;;;;;;;7.68;2.00;;;21.80;99.90;;;;;;5074102;28;20249;-86
2022/03/06 12:42:37;;;;;;;6.63;1.75;;;21.70;99.90;;;;;;5072047;28;20027;-85
2022/03/06 12:45:08;;;;;;;8.20;1.58;;;21.70;99.90;;;;;;5071884;28;20058;-84
2022/03/06 12:47:36;;;;;;;5.45;1.75;;;21.70;99.90;;;;;;5090327;28;20024;-86
2022/03/06 12:50:07;;;;;;;8.15;2.28;;;21.70;99.90;;;;;;5092026;28;20579;-82
2022/03/06 12:52:34;;;;;;;7.38;2.67;;;21.70;99.90;;;;;;5092913;28;20024;-85
2022/03/06 12:55:14;;;;;;;11.95;2.15;;;21.70;99.90;;;;;;5093496;28;20043;-78